sensor_id;sensor_type;location;lat;lon;timestamp;pressure;altitude;pressure_sealevel;temperature;humidity
68758;BME280;55747;51.998;4.466;2022-10-31T03:20:12;56620.50;;;-144.48;99.60
68758;BME280;55747;51.998;4.466;2022-10-31T03:26:41;56606.03;;;-144.48;99.72
68758;BME280;55747;51.998;4.466;2022-10-31T03:29:41;56624.63;;;-144.48;99.72
68758;BME280;55747;51.998;4.466;2022-10-31T03:32:51;56651.50;;;-144.48;99.83
68758;BME280;55747;51.998;4.466;2022-10-31T03:35:26;56637.03;;;-144.48;99.83
68758;BME280;55747;51.998;4.466;2022-10-31T03:37:56;56628.78;;;-144.48;99.88
68758;BME280;55747;51.998;4.466;2022-10-31T03:40:39;56624.63;;;-144.48;99.85
68758;BME280;55747;51.998;4.466;2022-10-31T03:43:15;56620.50;;;-144.48;100.00
68758;BME280;55747;51.998;4.466;2022-10-31T03:46:02;56657.72;;;-144.48;100.00
68758;BME280;55747;51.998;4.466;2022-10-31T03:48:33;56622.56;;;-144.48;100.00
68758;BME280;55747;51.998;4.466;2022-10-31T03:54:30;56626.72;;;-144.48;100.00
68758;BME280;55747;51.998;4.466;2022-10-31T04:00:09;56637.03;;;-144.48;100.00
68758;BME280;55747;51.998;4.466;2022-10-31T04:28:14;56637.03;;;-144.48;100.00
68758;BME280;55747;51.998;4.466;2022-10-31T04:31:04;56620.50;;;-144.48;100.00
68758;BME280;55747;51.998;4.466;2022-10-31T04:33:33;56628.78;;;-144.48;100.00
68758;BME280;55747;51.998;4.466;2022-10-31T04:36:01;56612.22;;;-144.48;100.00
68758;BME280;55747;51.998;4.466;2022-10-31T04:38:27;56645.31;;;-144.48;100.00
68758;BME280;55747;51.998;4.466;2022-10-31T04:40:53;56634.97;;;-144.48;100.00
68758;BME280;55747;51.998;4.466;2022-10-31T04:43:21;56634.97;;;-144.48;100.00
68758;BME280;55747;51.998;4.466;2022-10-31T04:49:06;56674.25;;;-144.48;100.00
68758;BME280;55747;51.998;4.466;2022-10-31T04:51:49;56663.91;;;-144.48;100.00
68758;BME280;55747;51.998;4.466;2022-10-31T04:54:47;56634.97;;;-144.48;100.00
68758;BME280;55747;51.998;4.466;2022-10-31T04:57:13;56626.72;;;-144.48;100.00
68758;BME280;55747;51.998;4.466;2022-10-31T04:59:41;56599.81;;;-144.48;100.00
68758;BME280;55747;51.998;4.466;2022-10-31T05:02:26;56641.19;;;-144.48;100.00
68758;BME280;55747;51.998;4.466;2022-10-31T05:04:55;56639.13;;;-144.48;100.00
68758;BME280;55747;51.998;4.466;2022-10-31T05:07:40;56674.25;;;-144.48;100.00
68758;BME280;55747;51.998;4.466;2022-10-31T05:10:13;56626.72;;;-144.48;100.00
68758;BME280;55747;51.998;4.466;2022-10-31T05:12:48;56639.13;;;-144.48;100.00
68758;BME280;55747;51.998;4.466;2022-10-31T05:15:16;56641.19;;;-144.48;100.00
68758;BME280;55747;51.998;4.466;2022-10-31T05:17:42;56649.44;;;-144.48;100.00
68758;BME280;55747;51.998;4.466;2022-10-31T05:20:12;56628.78;;;-144.48;100.00
68758;BME280;55747;51.998;4.466;2022-10-31T05:23:06;56612.22;;;-144.48;100.00
68758;BME280;55747;51.998;4.466;2022-10-31T05:25:32;56634.97;;;-144.48;100.00
68758;BME280;55747;51.998;4.466;2022-10-31T05:28:00;56630.84;;;-144.48;100.00
68758;BME280;55747;51.998;4.466;2022-10-31T05:30:29;56647.38;;;-144.48;100.00
68758;BME280;55747;51.998;4.466;2022-10-31T05:33:00;56630.84;;;-144.48;100.00
68758;BME280;55747;51.998;4.466;2022-10-31T05:35:30;56663.91;;;-144.48;100.00
68758;BME280;55747;51.998;4.466;2022-10-31T05:40:49;56618.44;;;-144.48;100.00
68758;BME280;55747;51.998;4.466;2022-10-31T05:43:17;56639.13;;;-144.48;100.00
68758;BME280;55747;51.998;4.466;2022-10-31T05:45:51;56655.66;;;-144.48;100.00
68758;BME280;55747;51.998;4.466;2022-10-31T05:48:45;56653.59;;;-144.48;100.00
68758;BME280;55747;51.998;4.466;2022-10-31T05:51:14;56655.66;;;-144.48;100.00
68758;BME280;55747;51.998;4.466;2022-10-31T05:53:46;56645.31;;;-144.48;100.00
68758;BME280;55747;51.998;4.466;2022-10-31T05:56:20;56614.31;;;-144.48;100.00
68758;BME280;55747;51.998;4.466;2022-10-31T05:58:52;56647.38;;;-144.48;100.00
68758;BME280;55747;51.998;4.466;2022-10-31T06:01:17;56624.63;;;-144.48;100.00
68758;BME280;55747;51.998;4.466;2022-10-31T06:03:54;56620.50;;;-144.48;100.00
68758;BME280;55747;51.998;4.466;2022-10-31T06:06:28;56597.75;;;-144.48;100.00
68758;BME280;55747;51.998;4.466;2022-10-31T06:08:57;56618.44;;;-144.48;100.00
68758;BME280;55747;51.998;4.466;2022-10-31T06:18:22;56649.44;;;-144.48;100.00
68758;BME280;55747;51.998;4.466;2022-10-31T06:25:13;56649.44;;;-144.48;100.00
68758;BME280;55747;51.998;4.466;2022-10-31T06:35:32;56624.63;;;-144.48;100.00
68758;BME280;55747;51.998;4.466;2022-10-31T06:41:46;56624.63;;;-144.48;100.00
68758;BME280;55747;51.998;4.466;2022-10-31T06:45:03;56655.66;;;-144.48;100.00
68758;BME280;55747;51.998;4.466;2022-10-31T06:48:32;56697.00;;;-144.48;100.00
68758;BME280;55747;51.998;4.466;2022-10-31T06:55:42;56626.72;;;-144.48;100.00
68758;BME280;55747;51.998;4.466;2022-10-31T06:59:14;56608.09;;;-144.48;100.00
68758;BME280;55747;51.998;4.466;2022-10-31T07:01:59;56657.72;;;-144.48;100.00
68758;BME280;55747;51.998;4.466;2022-10-31T07:04:36;56634.97;;;-144.48;100.00
68758;BME280;55747;51.998;4.466;2022-10-31T07:07:28;56641.19;;;-144.48;100.00
68758;BME280;55747;51.998;4.466;2022-10-31T07:10:05;56680.47;;;-144.48;100.00
68758;BME280;55747;51.998;4.466;2022-10-31T07:12:30;56674.25;;;-144.48;100.00
68758;BME280;55747;51.998;4.466;2022-10-31T07:15:06;56655.66;;;-144.48;100.00
68758;BME280;55747;51.998;4.466;2022-10-31T07:17:31;56637.03;;;-144.48;100.00
68758;BME280;55747;51.998;4.466;2022-10-31T07:22:51;56632.91;;;-144.48;100.00
68758;BME280;55747;51.998;4.466;2022-10-31T07:25:19;56647.38;;;-144.48;100.00
68758;BME280;55747;51.998;4.466;2022-10-31T07:27:50;56637.03;;;-144.48;100.00
68758;BME280;55747;51.998;4.466;2022-10-31T07:30:41;56639.13;;;-144.48;100.00
68758;BME280;55747;51.998;4.466;2022-10-31T07:33:44;56639.13;;;-144.48;100.00
68758;BME280;55747;51.998;4.466;2022-10-31T07:36:30;56639.13;;;-144.48;100.00
68758;BME280;55747;51.998;4.466;2022-10-31T07:46:04;56616.38;;;-144.48;100.00
68758;BME280;55747;51.998;4.466;2022-10-31T07:48:38;56624.63;;;-144.48;100.00
68758;BME280;55747;51.998;4.466;2022-10-31T07:51:04;56645.31;;;-144.48;100.00
68758;BME280;55747;51.998;4.466;2022-10-31T07:53:30;56661.84;;;-144.48;100.00
68758;BME280;55747;51.998;4.466;2022-10-31T07:55:57;56643.25;;;-144.48;100.00
68758;BME280;55747;51.998;4.466;2022-10-31T07:58:32;56657.72;;;-144.48;100.00
68758;BME280;55747;51.998;4.466;2022-10-31T08:01:13;56632.91;;;-144.48;100.00
68758;BME280;55747;51.998;4.466;2022-10-31T08:28:37;56637.03;;;-144.48;100.00
68758;BME280;55747;51.998;4.466;2022-10-31T08:59:42;56651.50;;;-144.48;96.38
68758;BME280;55747;51.998;4.466;2022-10-31T09:03:05;56630.84;;;-144.48;89.25
68758;BME280;55747;51.998;4.466;2022-10-31T12:27:27;56525.41;;;-144.48;67.38
68758;BME280;55747;51.998;4.466;2022-10-31T13:53:13;56572.94;;;-144.48;78.65
68758;BME280;55747;51.998;4.466;2022-10-31T13:59:51;56558.47;;;-144.48;79.49
68758;BME280;55747;51.998;4.466;2022-10-31T14:05:51;56581.22;;;-144.48;80.38
68758;BME280;55747;51.998;4.466;2022-10-31T14:19:25;56597.75;;;-144.48;81.68
68758;BME280;55747;51.998;4.466;2022-10-31T14:28:55;56591.56;;;-144.48;81.94
68758;BME280;55747;51.998;4.466;2022-10-31T15:10:30;56608.09;;;-144.48;85.59
68758;BME280;55747;51.998;4.466;2022-10-31T15:13:29;56587.41;;;-144.48;85.85
68758;BME280;55747;51.998;4.466;2022-10-31T15:15:58;56595.69;;;-144.48;86.21
68758;BME280;55747;51.998;4.466;2022-10-31T15:19:04;56587.41;;;-144.48;86.21
68758;BME280;55747;51.998;4.466;2022-10-31T15:29:03;56634.97;;;-144.48;86.59
68758;BME280;55747;51.998;4.466;2022-10-31T15:31:48;56626.72;;;-144.48;86.83
68758;BME280;55747;51.998;4.466;2022-10-31T15:34:54;56610.16;;;-144.48;87.06
68758;BME280;55747;51.998;4.466;2022-10-31T15:37:45;56601.91;;;-144.48;86.92
68758;BME280;55747;51.998;4.466;2022-10-31T15:41:04;56630.84;;;-144.48;86.97
68758;BME280;55747;51.998;4.466;2022-10-31T15:47:21;56591.56;;;-144.48;87.37
68758;BME280;55747;51.998;4.466;2022-10-31T16:12:42;56601.91;;;-144.48;88.65
68758;BME280;55747;51.998;4.466;2022-10-31T16:18:34;56603.97;;;-144.48;88.73
68758;BME280;55747;51.998;4.466;2022-10-31T16:21:03;56575.03;;;-144.48;89.01
68758;BME280;55747;51.998;4.466;2022-10-31T16:23:52;56612.22;;;-144.48;89.01
68758;BME280;55747;51.998;4.466;2022-10-31T16:26:19;56550.22;;;-144.48;89.26
68758;BME280;55747;51.998;4.466;2022-10-31T16:29:21;56589.50;;;-144.48;89.24
68758;BME280;55747;51.998;4.466;2022-10-31T16:31:47;56587.41;;;-144.48;89.39
68758;BME280;55747;51.998;4.466;2022-10-31T16:34:25;56601.91;;;-144.48;89.36
68758;BME280;55747;51.998;4.466;2022-10-31T16:37:04;56618.44;;;-144.48;89.52
68758;BME280;55747;51.998;4.466;2022-10-31T16:39:34;56634.97;;;-144.48;89.43
68758;BME280;55747;51.998;4.466;2022-10-31T16:42:00;56591.56;;;-144.48;89.68
68758;BME280;55747;51.998;4.466;2022-10-31T16:44:28;56612.22;;;-144.48;89.37
68758;BME280;55747;51.998;4.466;2022-10-31T16:50:31;56572.94;;;-144.48;89.11
68758;BME280;55747;51.998;4.466;2022-10-31T16:53:17;56591.56;;;-144.48;88.85
68758;BME280;55747;51.998;4.466;2022-10-31T16:55:56;56589.50;;;-144.48;88.96
68758;BME280;55747;51.998;4.466;2022-10-31T16:58:36;56597.75;;;-144.48;88.75
68758;BME280;55747;51.998;4.466;2022-10-31T17:22:18;56589.50;;;-144.48;88.04
68758;BME280;55747;51.998;4.466;2022-10-31T17:25:36;56599.81;;;-144.48;87.88
68758;BME280;55747;51.998;4.466;2022-10-31T17:28:15;56612.22;;;-144.48;87.97
68758;BME280;55747;51.998;4.466;2022-10-31T17:30:42;56601.91;;;-144.48;88.06
68758;BME280;55747;51.998;4.466;2022-10-31T17:33:33;56663.91;;;-144.48;87.83
68758;BME280;55747;51.998;4.466;2022-10-31T17:36:32;56622.56;;;-144.48;87.63
68758;BME280;55747;51.998;4.466;2022-10-31T17:42:58;56628.78;;;-144.48;87.53
68758;BME280;55747;51.998;4.466;2022-10-31T17:45:37;56597.75;;;-144.48;87.57
68758;BME280;55747;51.998;4.466;2022-10-31T17:48:23;56599.81;;;-144.48;87.85
68758;BME280;55747;51.998;4.466;2022-10-31T17:54:18;56620.50;;;-144.48;88.13
68758;BME280;55747;51.998;4.466;2022-10-31T17:57:18;56614.31;;;-144.48;88.13
68758;BME280;55747;51.998;4.466;2022-10-31T18:21:33;56614.31;;;-144.48;88.95
68758;BME280;55747;51.998;4.466;2022-10-31T18:24:21;56595.69;;;-144.48;88.92
68758;BME280;55747;51.998;4.466;2022-10-31T18:30:56;56620.50;;;-144.48;88.85
68758;BME280;55747;51.998;4.466;2022-10-31T18:33:32;56575.03;;;-144.48;88.49
68758;BME280;55747;51.998;4.466;2022-10-31T18:36:13;56603.97;;;-144.48;88.10
68758;BME280;55747;51.998;4.466;2022-10-31T18:38:42;56593.63;;;-144.48;87.94
68758;BME280;55747;51.998;4.466;2022-10-31T18:41:35;56558.47;;;-144.48;87.78
68758;BME280;55747;51.998;4.466;2022-10-31T18:44:22;56610.16;;;-144.48;87.63
68758;BME280;55747;51.998;4.466;2022-10-31T18:47:09;56587.41;;;-144.48;87.77
68758;BME280;55747;51.998;4.466;2022-10-31T18:53:00;56595.69;;;-144.48;88.31
68758;BME280;55747;51.998;4.466;2022-10-31T18:55:40;56612.22;;;-144.48;88.09
68758;BME280;55747;51.998;4.466;2022-10-31T18:58:22;56637.03;;;-144.48;87.91
68758;BME280;55747;51.998;4.466;2022-10-31T19:00:50;56620.50;;;-144.48;87.54
68758;BME280;55747;51.998;4.466;2022-10-31T19:03:19;56628.78;;;-144.48;87.50
68758;BME280;55747;51.998;4.466;2022-10-31T19:05:47;56579.16;;;-144.48;87.27
68758;BME280;55747;51.998;4.466;2022-10-31T19:08:13;56622.56;;;-144.48;87.18
68758;BME280;55747;51.998;4.466;2022-10-31T19:10:39;56599.81;;;-144.48;87.34
68758;BME280;55747;51.998;4.466;2022-10-31T19:13:09;56599.81;;;-144.48;87.38
68758;BME280;55747;51.998;4.466;2022-10-31T19:15:35;56624.63;;;-144.48;87.52
68758;BME280;55747;51.998;4.466;2022-10-31T19:18:03;56620.50;;;-144.48;87.59
68758;BME280;55747;51.998;4.466;2022-10-31T19:20:36;56603.97;;;-144.48;87.48
68758;BME280;55747;51.998;4.466;2022-10-31T19:23:04;56603.97;;;-144.48;87.61
68758;BME280;55747;51.998;4.466;2022-10-31T19:25:32;56614.31;;;-144.48;87.83
68758;BME280;55747;51.998;4.466;2022-10-31T19:28:00;56628.78;;;-144.48;88.04
68758;BME280;55747;51.998;4.466;2022-10-31T19:30:28;56616.38;;;-144.48;88.12
68758;BME280;55747;51.998;4.466;2022-10-31T19:32:54;56643.25;;;-144.48;88.10
68758;BME280;55747;51.998;4.466;2022-10-31T19:35:28;56655.66;;;-144.48;87.98
68758;BME280;55747;51.998;4.466;2022-10-31T19:37:53;56643.25;;;-144.48;88.16
68758;BME280;55747;51.998;4.466;2022-10-31T19:40:21;56643.25;;;-144.48;88.50
68758;BME280;55747;51.998;4.466;2022-10-31T19:43:07;56562.63;;;-144.48;88.39
68758;BME280;55747;51.998;4.466;2022-10-31T19:46:01;56614.31;;;-144.48;88.34
68758;BME280;55747;51.998;4.466;2022-10-31T19:52:04;56618.44;;;-144.48;88.10
68758;BME280;55747;51.998;4.466;2022-10-31T20:01:44;56593.63;;;-144.48;87.64
68758;BME280;55747;51.998;4.466;2022-10-31T20:05:08;56622.56;;;-144.48;87.83
68758;BME280;55747;51.998;4.466;2022-10-31T20:07:51;56663.91;;;-144.48;88.09
68758;BME280;55747;51.998;4.466;2022-10-31T20:20:48;56616.38;;;-144.48;87.00
68758;BME280;55747;51.998;4.466;2022-10-31T20:24:10;56616.38;;;-144.48;86.56
68758;BME280;55747;51.998;4.466;2022-10-31T20:30:07;56653.59;;;-144.48;85.89
68758;BME280;55747;51.998;4.466;2022-10-31T20:33:08;56659.78;;;-144.48;85.35
68758;BME280;55747;51.998;4.466;2022-10-31T20:36:11;56657.72;;;-144.48;85.13
68758;BME280;55747;51.998;4.466;2022-10-31T20:39:30;56597.75;;;-144.48;84.67
68758;BME280;55747;51.998;4.466;2022-10-31T20:42:37;56649.44;;;-144.48;84.08
68758;BME280;55747;51.998;4.466;2022-10-31T20:49:20;56616.38;;;-144.48;83.14
68758;BME280;55747;51.998;4.466;2022-10-31T21:03:26;56595.69;;;-144.48;82.43
68758;BME280;55747;51.998;4.466;2022-10-31T21:09:57;56634.97;;;-144.48;81.60
68758;BME280;55747;51.998;4.466;2022-10-31T21:17:16;56606.03;;;-144.48;80.90
68758;BME280;55747;51.998;4.466;2022-10-31T21:19:44;56601.91;;;-144.48;80.90
68758;BME280;55747;51.998;4.466;2022-10-31T21:26:45;56603.97;;;-144.48;80.08
68758;BME280;55747;51.998;4.466;2022-10-31T21:37:02;56632.91;;;-144.48;79.03
68758;BME280;55747;51.998;4.466;2022-10-31T21:40:09;56583.28;;;-144.48;78.47
68758;BME280;55747;51.998;4.466;2022-10-31T21:43:20;56550.22;;;-144.48;77.93
68758;BME280;55747;51.998;4.466;2022-10-31T21:46:27;56595.69;;;-144.48;77.50
68758;BME280;55747;51.998;4.466;2022-10-31T21:52:43;56651.50;;;-144.48;76.31
68758;BME280;55747;51.998;4.466;2022-10-31T22:02:11;56581.22;;;-144.48;77.46
68758;BME280;55747;51.998;4.466;2022-10-31T22:25:07;56597.75;;;-144.48;83.52
68758;BME280;55747;51.998;4.466;2022-10-31T22:27:32;56606.03;;;-144.48;83.58
68758;BME280;55747;51.998;4.466;2022-10-31T22:29:57;56622.56;;;-144.48;83.41
68758;BME280;55747;51.998;4.466;2022-10-31T22:32:23;56595.69;;;-144.48;84.01
68758;BME280;55747;51.998;4.466;2022-10-31T22:34:51;56595.69;;;-144.48;83.88
68758;BME280;55747;51.998;4.466;2022-10-31T22:37:16;56583.28;;;-144.48;84.03
68758;BME280;55747;51.998;4.466;2022-10-31T22:39:41;56628.78;;;-144.48;84.08
68758;BME280;55747;51.998;4.466;2022-10-31T22:42:07;56585.34;;;-144.48;84.00
68758;BME280;55747;51.998;4.466;2022-10-31T22:44:32;56634.97;;;-144.48;84.81
68758;BME280;55747;51.998;4.466;2022-10-31T22:46:57;56616.38;;;-144.48;85.47
68758;BME280;55747;51.998;4.466;2022-10-31T22:49:23;56626.72;;;-144.48;85.99
68758;BME280;55747;51.998;4.466;2022-10-31T22:51:49;56622.56;;;-144.48;86.94
68758;BME280;55747;51.998;4.466;2022-10-31T22:54:16;56624.63;;;-144.48;87.16
68758;BME280;55747;51.998;4.466;2022-10-31T22:56:42;56624.63;;;-144.48;87.59
68758;BME280;55747;51.998;4.466;2022-10-31T22:59:11;56632.91;;;-144.48;87.37
68758;BME280;55747;51.998;4.466;2022-10-31T23:01:37;56618.44;;;-144.48;87.91
68758;BME280;55747;51.998;4.466;2022-10-31T23:04:03;56620.50;;;-144.48;87.74
68758;BME280;55747;51.998;4.466;2022-10-31T23:06:30;56645.31;;;-144.48;88.24
68758;BME280;55747;51.998;4.466;2022-10-31T23:08:56;56599.81;;;-144.48;88.15
68758;BME280;55747;51.998;4.466;2022-10-31T23:11:47;56597.75;;;-144.48;88.30
68758;BME280;55747;51.998;4.466;2022-10-31T23:14:16;56616.38;;;-144.48;88.03
68758;BME280;55747;51.998;4.466;2022-10-31T23:19:12;56614.31;;;-144.48;87.61
68758;BME280;55747;51.998;4.466;2022-10-31T23:21:40;56587.41;;;-144.48;87.54
68758;BME280;55747;51.998;4.466;2022-10-31T23:26:54;56610.16;;;-144.48;87.17
68758;BME280;55747;51.998;4.466;2022-10-31T23:29:39;56603.97;;;-144.48;86.83
68758;BME280;55747;51.998;4.466;2022-10-31T23:32:07;56614.31;;;-144.48;86.31
68758;BME280;55747;51.998;4.466;2022-10-31T23:34:33;56612.22;;;-144.48;86.54
68758;BME280;55747;51.998;4.466;2022-10-31T23:36:58;56618.44;;;-144.48;86.92
68758;BME280;55747;51.998;4.466;2022-10-31T23:39:23;56634.97;;;-144.48;86.94
68758;BME280;55747;51.998;4.466;2022-10-31T23:41:49;56612.22;;;-144.48;87.35
68758;BME280;55747;51.998;4.466;2022-10-31T23:44:14;56612.22;;;-144.48;87.64
68758;BME280;55747;51.998;4.466;2022-10-31T23:46:39;56581.22;;;-144.48;87.53
68758;BME280;55747;51.998;4.466;2022-10-31T23:49:05;56649.44;;;-144.48;87.50
68758;BME280;55747;51.998;4.466;2022-10-31T23:51:30;56637.03;;;-144.48;87.13
68758;BME280;55747;51.998;4.466;2022-10-31T23:53:55;56626.72;;;-144.48;86.67
68758;BME280;55747;51.998;4.466;2022-10-31T23:56:20;56593.63;;;-144.48;86.46
68758;BME280;55747;51.998;4.466;2022-10-31T23:58:46;56622.56;;;-144.48;86.40
